createdAt,value
2019-06-08T00:01:37.038Z,3.30
2019-06-08T00:04:05.367Z,2.10
2019-06-08T00:06:33.619Z,2.73
2019-06-08T00:09:01.880Z,5.87
2019-06-08T00:11:30.130Z,3.30
2019-06-08T00:13:58.390Z,2.53
2019-06-08T00:16:26.952Z,2.57
2019-06-08T00:18:55.278Z,4.67
2019-06-08T00:21:24.122Z,2.77
2019-06-08T00:23:54.688Z,2.27
2019-06-08T00:26:24.235Z,3.03
2019-06-08T00:28:52.854Z,2.33
2019-06-08T00:31:21.673Z,2.77
2019-06-08T00:33:50.057Z,2.07
2019-06-08T00:36:18.731Z,3.63
2019-06-08T00:38:47.160Z,5.23
2019-06-08T00:41:15.493Z,3.23
2019-06-08T00:43:43.739Z,4.53
2019-06-08T00:46:12.004Z,3.83
2019-06-08T00:48:40.557Z,3.37
2019-06-08T00:51:08.826Z,3.83
2019-06-08T00:53:37.079Z,3.53
2019-06-08T00:56:05.344Z,3.30
2019-06-08T00:58:33.690Z,4.03
2019-06-08T01:01:01.965Z,5.40
2019-06-08T01:03:30.219Z,2.20
2019-06-08T01:05:58.789Z,4.20
2019-06-08T01:08:27.471Z,2.27
2019-06-08T01:10:55.787Z,2.53
2019-06-08T01:13:24.906Z,1.77
2019-06-08T01:15:53.859Z,3.30
2019-06-08T01:18:22.963Z,1.53
2019-06-08T01:20:52.118Z,2.40
2019-06-08T01:23:21.512Z,1.57
2019-06-08T01:25:50.014Z,2.53
2019-06-08T01:28:18.283Z,2.20
2019-06-08T01:30:46.598Z,2.87
2019-06-08T01:33:14.858Z,7.20
2019-06-08T01:35:43.114Z,2.23
2019-06-08T01:38:11.383Z,1.60
2019-06-08T01:40:39.701Z,2.07
2019-06-08T01:43:07.959Z,1.60
2019-06-08T01:45:36.226Z,1.57
2019-06-08T01:48:19.508Z,1.30
2019-06-08T01:50:36.242Z,2.17
2019-06-08T01:53:04.508Z,2.00
2019-06-08T01:55:33.374Z,1.37
2019-06-08T01:58:01.619Z,1.57
2019-06-08T02:00:35.876Z,1.43
2019-06-08T02:03:00.434Z,2.07
2019-06-08T02:05:30.311Z,1.40
2019-06-08T02:07:59.645Z,1.77
2019-06-08T02:10:28.814Z,1.57
2019-06-08T02:12:57.291Z,2.40
2019-06-08T02:15:25.558Z,1.40
2019-06-08T02:17:53.826Z,1.13
2019-06-08T02:20:22.080Z,1.97
2019-06-08T02:22:50.352Z,1.20
2019-06-08T02:25:20.330Z,1.10
2019-06-08T02:27:49.950Z,2.97
2019-06-08T02:30:18.222Z,5.97
2019-06-08T02:32:47.167Z,1.47
2019-06-08T02:35:15.503Z,2.03
2019-06-08T02:37:44.342Z,1.27
2019-06-08T02:40:12.675Z,1.87
2019-06-08T02:42:40.930Z,1.97
2019-06-08T02:45:09.225Z,1.63
2019-06-08T02:47:38.099Z,2.77
2019-06-08T02:50:10.136Z,1.70
2019-06-08T02:52:40.576Z,4.37
2019-06-08T02:55:09.819Z,1.30
2019-06-08T02:57:39.940Z,2.83
2019-06-08T03:00:10.284Z,2.87
2019-06-08T03:02:40.594Z,1.47
2019-06-08T03:05:09.039Z,1.20
2019-06-08T03:07:38.963Z,1.13
2019-06-08T03:10:07.772Z,1.50
2019-06-08T03:12:37.537Z,1.60
2019-06-08T03:15:06.607Z,1.00
2019-06-08T03:17:35.617Z,1.83
2019-06-08T03:20:06.103Z,2.17
2019-06-08T03:22:36.536Z,1.40
2019-06-08T03:25:05.887Z,1.80
2019-06-08T03:27:34.912Z,1.43
2019-06-08T03:30:16.383Z,1.37
2019-06-08T03:32:41.974Z,0.90
2019-06-08T03:35:08.515Z,1.10
2019-06-08T03:37:37.930Z,2.00
2019-06-08T03:40:06.411Z,1.33
2019-06-08T03:42:34.756Z,1.53
2019-06-08T03:45:04.291Z,1.73
2019-06-08T03:47:32.625Z,1.50
2019-06-08T03:50:01.010Z,1.10
2019-06-08T03:52:29.279Z,1.70
2019-06-08T03:54:57.533Z,0.87
2019-06-08T03:57:25.841Z,1.20
2019-06-08T03:59:54.713Z,1.07
2019-06-08T04:02:22.960Z,1.37
2019-06-08T04:04:51.238Z,1.50
2019-06-08T04:07:19.552Z,1.77
2019-06-08T04:09:49.945Z,0.97
2019-06-08T04:12:18.343Z,0.93
2019-06-08T04:14:46.758Z,1.20
2019-06-08T04:17:15.132Z,1.17
2019-06-08T04:20:04.386Z,1.27
2019-06-08T04:22:13.386Z,1.13
2019-06-08T04:24:42.458Z,0.93
2019-06-08T04:27:11.635Z,0.83
2019-06-08T04:29:41.666Z,1.20
2019-06-08T04:32:09.901Z,0.70
2019-06-08T04:34:38.702Z,0.90
2019-06-08T04:37:07.015Z,1.60
2019-06-08T04:39:35.278Z,0.83
2019-06-08T04:42:03.530Z,1.10
2019-06-08T04:44:31.795Z,1.83
2019-06-08T04:47:00.624Z,6.33
2019-06-08T04:49:28.900Z,2.07
2019-06-08T04:51:57.152Z,2.30
2019-06-08T04:54:25.424Z,0.97
2019-06-08T04:56:53.755Z,1.53
2019-06-08T04:59:22.046Z,0.80
2019-06-08T05:01:50.572Z,1.03
2019-06-08T05:04:18.841Z,1.87
2019-06-08T05:06:47.270Z,2.00
2019-06-08T05:09:15.642Z,1.83
2019-06-08T05:11:45.287Z,1.03
2019-06-08T05:14:13.710Z,2.63
2019-06-08T05:16:43.165Z,3.40
2019-06-08T05:19:11.515Z,1.97
2019-06-08T05:21:41.451Z,1.00
2019-06-08T05:24:09.882Z,1.83
2019-06-08T05:26:39.268Z,2.70
2019-06-08T05:29:07.548Z,1.70
2019-06-08T05:31:36.399Z,0.80
2019-06-08T05:34:05.002Z,1.33
2019-06-08T05:36:33.335Z,0.80
2019-06-08T05:39:01.687Z,0.93
2019-06-08T05:41:30.066Z,19.73
2019-06-08T05:43:59.599Z,1.30
2019-06-08T05:46:27.854Z,1.47
2019-06-08T05:48:56.110Z,2.53
2019-06-08T05:51:24.374Z,0.77
2019-06-08T05:53:53.203Z,1.93
2019-06-08T05:56:21.482Z,0.70
2019-06-08T05:58:50.388Z,1.20
2019-06-08T06:01:19.454Z,3.43
2019-06-08T06:03:48.705Z,1.50
2019-06-08T06:06:17.171Z,1.83
2019-06-08T06:08:46.582Z,2.10
2019-06-08T06:11:15.062Z,0.60
2019-06-08T06:13:43.315Z,1.27
2019-06-08T06:16:11.583Z,1.83
2019-06-08T06:18:41.211Z,1.70
2019-06-08T06:21:11.801Z,1.97
2019-06-08T06:23:39.462Z,1.37
2019-06-08T06:26:07.726Z,1.60
2019-06-08T06:28:36.078Z,1.27
2019-06-08T06:31:04.335Z,2.57
2019-06-08T06:33:32.607Z,2.03
2019-06-08T06:36:02.130Z,1.10
2019-06-08T06:38:31.673Z,1.47
2019-06-08T06:40:59.928Z,1.40
2019-06-08T06:43:28.197Z,1.33
2019-06-08T06:45:56.446Z,1.87
2019-06-08T06:48:25.037Z,0.60
2019-06-08T06:50:53.619Z,0.70
2019-06-08T06:53:21.890Z,0.87
2019-06-08T06:55:51.024Z,0.80
2019-06-08T06:58:20.034Z,6.03
2019-06-08T07:00:49.403Z,4.33
2019-06-08T07:03:17.847Z,1.57
2019-06-08T07:05:46.112Z,2.87
2019-06-08T07:08:14.388Z,4.63
2019-06-08T07:10:42.668Z,8.90
2019-06-08T07:13:11.016Z,8.00
2019-06-08T07:15:41.774Z,5.13
2019-06-08T07:18:09.565Z,16.83
2019-06-08T07:20:37.846Z,11.13
2019-06-08T07:23:06.159Z,7.07
2019-06-08T07:25:34.422Z,4.67
2019-06-08T07:28:02.686Z,7.10
2019-06-08T07:30:30.958Z,7.40
2019-06-08T07:32:59.463Z,5.70
2019-06-08T07:35:27.854Z,6.23
2019-06-08T07:37:56.108Z,1.73
2019-06-08T07:40:25.367Z,2.17
2019-06-08T07:42:55.254Z,8.33
2019-06-08T07:45:23.610Z,2.60
2019-06-08T07:47:52.036Z,5.77
2019-06-08T07:50:20.386Z,4.70
2019-06-08T07:52:49.911Z,4.07
2019-06-08T07:55:18.631Z,4.97
2019-06-08T07:57:48.560Z,4.40
2019-06-08T08:00:17.042Z,4.20
2019-06-08T08:02:45.303Z,3.17
2019-06-08T08:05:13.562Z,2.87
2019-06-08T08:07:41.818Z,2.47
2019-06-08T08:10:10.496Z,2.60
2019-06-08T08:12:38.874Z,5.87
2019-06-08T08:15:07.503Z,9.83
2019-06-08T08:17:35.768Z,2.07
2019-06-08T08:20:08.690Z,6.37
2019-06-08T08:22:38.199Z,1.93
2019-06-08T08:25:08.358Z,3.10
2019-06-08T08:27:37.543Z,1.63
2019-06-08T08:30:08.334Z,1.77
2019-06-08T08:32:38.068Z,7.20
2019-06-08T08:35:08.901Z,6.17
2019-06-08T08:37:38.053Z,9.03
2019-06-08T08:40:07.857Z,14.90
2019-06-08T08:42:38.579Z,7.37
2019-06-08T08:45:08.825Z,4.50
2019-06-08T08:47:38.692Z,13.37
2019-06-08T08:50:07.441Z,8.57
2019-06-08T08:52:38.041Z,3.53
2019-06-08T08:55:08.096Z,8.50
2019-06-08T08:57:38.694Z,5.00
2019-06-08T09:00:08.581Z,6.57
2019-06-08T09:02:37.477Z,7.73
2019-06-08T09:05:08.332Z,6.67
2019-06-08T09:07:38.251Z,4.10
2019-06-08T09:10:08.514Z,3.83
2019-06-08T09:12:37.678Z,6.63
2019-06-08T09:15:08.589Z,7.30
2019-06-08T09:17:38.603Z,4.37
2019-06-08T09:20:11.029Z,5.23
2019-06-08T09:22:50.183Z,7.30
2019-06-08T09:25:08.630Z,2.87
2019-06-08T09:27:38.276Z,3.20
2019-06-08T09:30:08.324Z,5.20
2019-06-08T09:32:38.260Z,3.80
2019-06-08T09:35:09.118Z,4.57
2019-06-08T09:37:37.570Z,6.10
2019-06-08T09:40:06.101Z,4.40
2019-06-08T09:42:34.458Z,6.33
2019-06-08T09:45:05.423Z,6.73
2019-06-08T09:47:33.181Z,4.20
2019-06-08T09:50:03.341Z,4.60
2019-06-08T09:52:31.485Z,7.97
2019-06-08T09:55:03.733Z,6.53
2019-06-08T09:57:32.294Z,3.43
2019-06-08T10:00:04.341Z,8.07
2019-06-08T10:02:30.540Z,6.67
2019-06-08T10:05:00.978Z,6.80
2019-06-08T10:07:31.368Z,5.90
2019-06-08T10:10:02.256Z,4.13
2019-06-08T10:12:29.200Z,8.30
2019-06-08T10:14:58.780Z,6.17
2019-06-08T10:17:27.913Z,3.13
2019-06-08T10:20:00.221Z,4.57
2019-06-08T10:22:28.236Z,6.87
2019-06-08T10:24:58.017Z,5.37
2019-06-08T10:27:28.233Z,2.77
2019-06-08T10:29:58.612Z,2.90
2019-06-08T10:32:28.265Z,5.77
2019-06-08T10:34:59.675Z,2.77
2019-06-08T10:37:28.365Z,3.77
2019-06-08T10:39:58.672Z,6.87
2019-06-08T10:42:26.450Z,5.43
2019-06-08T10:44:54.747Z,12.20
2019-06-08T10:47:23.039Z,6.17
2019-06-08T10:49:51.357Z,14.17
2019-06-08T10:52:20.332Z,6.43
2019-06-08T10:54:48.837Z,6.93
2019-06-08T10:57:18.271Z,8.90
2019-06-08T10:59:48.615Z,13.63
2019-06-08T11:02:18.707Z,9.57
2019-06-08T11:04:48.405Z,7.63
2019-06-08T11:07:16.840Z,7.17
2019-06-08T11:09:45.163Z,7.73
2019-06-08T11:12:15.204Z,4.53
2019-06-08T11:14:43.449Z,7.43
2019-06-08T11:17:11.764Z,4.40
2019-06-08T11:19:40.050Z,4.70
2019-06-08T11:22:13.872Z,4.30
2019-06-08T11:24:38.854Z,4.03
2019-06-08T11:27:10.500Z,8.43
2019-06-08T11:29:38.406Z,4.53
2019-06-08T11:32:10.929Z,6.37
2019-06-08T11:34:38.040Z,5.93
2019-06-08T11:37:09.370Z,4.97
2019-06-08T11:39:38.218Z,6.27
2019-06-08T11:42:09.272Z,5.60
2019-06-08T11:44:38.759Z,2.00
2019-06-08T11:47:09.418Z,3.80
2019-06-08T11:49:36.267Z,6.07
2019-06-08T11:52:04.667Z,3.10
2019-06-08T11:54:37.296Z,6.07
2019-06-08T11:57:02.928Z,5.60
2019-06-08T11:59:31.723Z,6.97
2019-06-08T12:01:59.986Z,3.87
2019-06-08T12:04:28.584Z,3.27
2019-06-08T12:06:58.458Z,3.03
2019-06-08T12:09:28.646Z,2.87
2019-06-08T12:11:58.116Z,6.07
2019-06-08T12:14:26.414Z,5.70
2019-06-08T12:16:55.254Z,4.33
2019-06-08T12:19:23.514Z,4.20
2019-06-08T12:21:51.787Z,4.27
2019-06-08T12:24:20.051Z,5.47
2019-06-08T12:26:51.805Z,4.03
2019-06-08T12:29:18.923Z,3.00
2019-06-08T12:31:47.427Z,5.60
2019-06-08T12:34:18.329Z,3.63
2019-06-08T12:36:47.949Z,5.27
2019-06-08T12:39:18.598Z,9.77
2019-06-08T12:41:47.766Z,6.20
2019-06-08T12:44:17.366Z,6.03
2019-06-08T12:46:48.360Z,6.50
2019-06-08T12:49:18.800Z,10.00
2019-06-08T12:51:50.816Z,9.80
2019-06-08T12:54:19.422Z,15.00
2019-06-08T12:56:47.941Z,5.63
2019-06-08T12:59:20.882Z,9.10
2019-06-08T13:01:48.392Z,9.17
2019-06-08T13:04:18.766Z,5.37
2019-06-08T13:06:48.356Z,7.37
2019-06-08T13:09:18.898Z,5.17
2019-06-08T13:11:50.438Z,6.33
2019-06-08T13:14:19.066Z,13.33
2019-06-08T13:16:48.947Z,4.77
2019-06-08T13:19:20.013Z,8.73
2019-06-08T13:21:48.760Z,7.03
2019-06-08T13:24:17.313Z,6.10
2019-06-08T13:26:45.670Z,5.87
2019-06-08T13:29:13.958Z,10.27
2019-06-08T13:31:42.791Z,10.07
2019-06-08T13:34:13.838Z,4.23
2019-06-08T13:36:42.381Z,8.07
2019-06-08T13:39:11.621Z,7.87
2019-06-08T13:41:40.434Z,8.87
2019-06-08T13:44:08.691Z,7.80
2019-06-08T13:46:37.913Z,10.67
2019-06-08T13:49:08.284Z,3.43
2019-06-08T13:51:38.430Z,6.20
2019-06-08T13:54:08.340Z,7.67
2019-06-08T13:56:38.458Z,5.07
2019-06-08T13:59:07.948Z,9.77
2019-06-08T14:01:37.814Z,6.65
2019-06-08T14:04:08.805Z,7.00
2019-06-08T14:06:37.146Z,5.93
2019-06-08T14:09:08.336Z,3.70
2019-06-08T14:11:36.379Z,7.20
2019-06-08T14:14:04.725Z,11.17
2019-06-08T14:16:33.006Z,7.40
2019-06-08T14:19:01.831Z,4.30
2019-06-08T14:21:40.976Z,6.50
2019-06-08T14:24:00.087Z,6.97
2019-06-08T14:26:29.580Z,6.17
2019-06-08T14:29:00.835Z,6.87
2019-06-08T14:31:30.407Z,8.30
2019-06-08T14:33:57.981Z,14.60
2019-06-08T14:36:28.673Z,8.73
2019-06-08T14:39:01.756Z,11.27
2019-06-08T14:41:29.229Z,8.33
2019-06-08T14:43:58.470Z,10.63
2019-06-08T14:46:28.618Z,18.53
2019-06-08T14:48:58.440Z,6.90
2019-06-08T14:51:30.140Z,10.70
2019-06-08T14:53:58.317Z,12.03
2019-06-08T14:56:29.226Z,9.83
2019-06-08T14:58:58.066Z,14.47
2019-06-08T15:01:29.723Z,31.47
2019-06-08T15:03:58.579Z,23.67
2019-06-08T15:06:31.032Z,21.40
2019-06-08T15:08:58.188Z,20.67
2019-06-08T15:11:28.802Z,22.23
2019-06-08T15:13:58.652Z,19.70
2019-06-08T15:16:28.242Z,26.17
2019-06-08T15:19:00.107Z,18.97
2019-06-08T15:21:30.156Z,15.83
2019-06-08T15:23:58.104Z,15.40
2019-06-08T15:26:32.776Z,14.03
2019-06-08T15:28:58.596Z,20.83
2019-06-08T15:31:29.466Z,16.73
2019-06-08T15:33:56.466Z,19.43
2019-06-08T15:36:25.212Z,13.27
2019-06-08T15:38:53.583Z,25.60
2019-06-08T15:41:23.292Z,14.60
2019-06-08T15:43:51.850Z,13.77
2019-06-08T15:46:20.107Z,17.83
2019-06-08T15:48:48.675Z,19.00
2019-06-08T15:51:17.124Z,14.37
2019-06-08T15:53:47.571Z,18.10
2019-06-08T15:56:15.370Z,19.67
2019-06-08T15:58:45.014Z,15.50
2019-06-08T16:01:14.818Z,13.83
2019-06-08T16:03:43.152Z,17.83
2019-06-08T16:06:11.483Z,19.87
2019-06-08T16:08:39.767Z,13.57
2019-06-08T16:11:08.612Z,17.43
2019-06-08T16:13:36.879Z,16.20
2019-06-08T16:16:05.214Z,14.67
2019-06-08T16:18:33.605Z,17.73
2019-06-08T16:21:02.014Z,24.43
2019-06-08T16:23:31.565Z,14.80
2019-06-08T16:26:00.225Z,12.47
2019-06-08T16:28:29.832Z,16.30
2019-06-08T16:30:59.605Z,15.23
2019-06-08T16:33:29.238Z,11.83
2019-06-08T16:35:57.615Z,12.33
2019-06-08T16:38:25.878Z,13.90
2019-06-08T16:40:54.150Z,14.77
2019-06-08T16:43:22.423Z,23.53
2019-06-08T16:45:50.700Z,17.97
2019-06-08T16:48:18.966Z,17.83
2019-06-08T16:50:47.234Z,21.77
2019-06-08T16:53:15.507Z,13.97
2019-06-08T16:55:44.442Z,19.07
2019-06-08T16:58:12.707Z,12.70
2019-06-08T17:00:42.360Z,17.70
2019-06-08T17:03:10.820Z,17.03
2019-06-08T17:05:39.142Z,15.03
2019-06-08T17:08:07.438Z,15.13
2019-06-08T17:10:36.904Z,15.63
2019-06-08T17:13:05.337Z,7.73
2019-06-08T17:15:34.123Z,16.97
2019-06-08T17:18:02.495Z,13.27
2019-06-08T17:20:31.976Z,9.57
2019-06-08T17:23:00.434Z,15.20
2019-06-08T17:25:28.696Z,11.63
2019-06-08T17:27:56.967Z,12.93
2019-06-08T17:30:25.226Z,15.20
2019-06-08T17:32:53.502Z,11.00
2019-06-08T17:35:21.754Z,9.90
2019-06-08T17:37:50.027Z,13.10
2019-06-08T17:40:18.292Z,10.23
2019-06-08T17:42:46.556Z,7.90
2019-06-08T17:45:14.828Z,10.70
2019-06-08T17:47:43.099Z,10.57
2019-06-08T17:50:12.144Z,11.37
2019-06-08T17:52:41.032Z,5.23
2019-06-08T17:55:10.091Z,8.67
2019-06-08T17:57:48.565Z,8.93
2019-06-08T18:00:09.341Z,9.27
2019-06-08T18:02:40.764Z,10.87
2019-06-08T18:05:08.574Z,9.80
2019-06-08T18:07:38.986Z,7.93
2019-06-08T18:10:08.088Z,11.00
2019-06-08T18:12:39.243Z,8.47
2019-06-08T18:15:07.629Z,6.70
2019-06-08T18:17:39.168Z,8.07
2019-06-08T18:20:10.530Z,6.27
2019-06-08T18:22:41.495Z,7.57
2019-06-08T18:25:08.790Z,7.63
2019-06-08T18:27:39.190Z,6.23
2019-06-08T18:30:10.899Z,6.03
2019-06-08T18:32:40.199Z,6.37
2019-06-08T18:35:08.130Z,7.80
2019-06-08T18:37:39.306Z,8.07
2019-06-08T18:40:08.020Z,9.53
2019-06-08T18:42:39.564Z,6.13
2019-06-08T18:45:07.408Z,7.03
2019-06-08T18:47:37.855Z,7.07
2019-06-08T18:50:08.828Z,7.20
2019-06-08T18:52:40.581Z,7.53
2019-06-08T18:55:08.327Z,6.63
2019-06-08T18:57:38.480Z,3.47
2019-06-08T19:00:09.224Z,8.50
2019-06-08T19:02:40.875Z,7.97
2019-06-08T19:05:08.410Z,8.37
2019-06-08T19:07:37.004Z,8.10
2019-06-08T19:10:07.582Z,4.43
2019-06-08T19:12:38.354Z,4.83
2019-06-08T19:15:11.091Z,9.33
2019-06-08T19:17:39.780Z,3.47
2019-06-08T19:20:06.662Z,4.87
2019-06-08T19:22:34.930Z,4.87
2019-06-08T19:25:04.382Z,8.10
2019-06-08T19:27:33.204Z,3.10
2019-06-08T19:30:01.718Z,6.60
2019-06-08T19:32:29.970Z,5.70
2019-06-08T19:34:58.238Z,4.07
2019-06-08T19:37:28.697Z,4.37
2019-06-08T19:39:57.702Z,4.43
2019-06-08T19:42:36.979Z,4.10
2019-06-08T19:45:05.028Z,4.77
2019-06-08T19:47:27.589Z,6.73
2019-06-08T19:49:57.685Z,6.13
2019-06-08T19:52:26.259Z,8.07
2019-06-08T19:54:54.719Z,7.30
2019-06-08T19:57:23.104Z,5.60
2019-06-08T19:59:51.367Z,6.57
2019-06-08T20:02:19.627Z,8.43
2019-06-08T20:04:48.930Z,6.53
2019-06-08T20:07:17.911Z,4.57
2019-06-08T20:09:48.201Z,5.47
2019-06-08T20:12:18.480Z,5.57
2019-06-08T20:14:48.442Z,5.53
2019-06-08T20:17:17.243Z,4.47
2019-06-08T20:19:48.036Z,4.03
2019-06-08T20:22:18.244Z,3.10
2019-06-08T20:24:51.439Z,7.17
2019-06-08T20:27:17.196Z,2.47
2019-06-08T20:29:47.855Z,2.57
2019-06-08T20:32:17.993Z,5.03
2019-06-08T20:34:49.283Z,5.37
2019-06-08T20:37:17.554Z,4.80
2019-06-08T20:39:59.598Z,3.43
2019-06-08T20:42:17.349Z,3.27
2019-06-08T20:44:46.659Z,3.53
2019-06-08T20:47:17.896Z,7.00
2019-06-08T20:49:48.642Z,4.97
2019-06-08T20:52:17.734Z,1.97
2019-06-08T20:54:49.000Z,4.20
2019-06-08T20:57:17.061Z,4.80
2019-06-08T20:59:45.697Z,2.33
2019-06-08T21:02:14.120Z,4.83
2019-06-08T21:04:44.458Z,3.90
2019-06-08T21:07:12.383Z,2.60
2019-06-08T21:09:40.633Z,3.00
2019-06-08T21:12:08.890Z,4.40
2019-06-08T21:14:37.982Z,4.30
2019-06-08T21:17:07.641Z,2.53
2019-06-08T21:19:36.130Z,4.10
2019-06-08T21:22:04.448Z,3.50
2019-06-08T21:24:32.716Z,2.93
2019-06-08T21:27:00.990Z,5.07
2019-06-08T21:29:46.989Z,2.43
2019-06-08T21:32:02.374Z,4.53
2019-06-08T21:34:29.792Z,2.60
2019-06-08T21:37:00.725Z,7.00
2019-06-08T21:39:28.370Z,5.13
2019-06-08T21:42:02.265Z,3.70
2019-06-08T21:44:27.875Z,4.73
2019-06-08T21:47:00.829Z,5.17
2019-06-08T21:49:27.719Z,7.30
2019-06-08T21:51:59.289Z,3.83
2019-06-08T21:54:27.172Z,3.77
2019-06-08T21:56:58.914Z,8.70
2019-06-08T21:59:25.650Z,5.23
2019-06-08T22:01:55.215Z,5.67
2019-06-08T22:04:23.905Z,6.80
2019-06-08T22:06:52.170Z,4.13
2019-06-08T22:09:21.014Z,5.73
2019-06-08T22:11:50.942Z,4.63
2019-06-08T22:14:19.312Z,3.57
2019-06-08T22:16:47.786Z,4.73
2019-06-08T22:19:18.371Z,6.83
2019-06-08T22:21:48.052Z,4.37
2019-06-08T22:24:17.163Z,5.93
2019-06-08T22:26:45.593Z,8.73
2019-06-08T22:29:13.879Z,7.43
2019-06-08T22:31:42.214Z,5.53
2019-06-08T22:34:10.490Z,4.10
2019-06-08T22:36:39.155Z,5.27
2019-06-08T22:39:08.075Z,5.63
2019-06-08T22:41:37.328Z,5.43
2019-06-08T22:44:08.088Z,5.53
2019-06-08T22:46:37.545Z,4.83
2019-06-08T22:49:07.850Z,3.73
2019-06-08T22:51:38.063Z,4.37
2019-06-08T22:54:07.831Z,7.47
2019-06-08T22:56:37.182Z,6.30
2019-06-08T22:59:06.755Z,4.20
2019-06-08T23:01:38.194Z,7.83
2019-06-08T23:04:08.628Z,9.53
2019-06-08T23:06:35.646Z,5.03
2019-06-08T23:09:05.733Z,5.57
2019-06-08T23:11:34.867Z,2.60
2019-06-08T23:14:05.390Z,5.60
2019-06-08T23:16:33.115Z,7.30
2019-06-08T23:19:01.756Z,4.73
2019-06-08T23:21:30.282Z,3.07
2019-06-08T23:24:00.989Z,2.67
2019-06-08T23:26:29.940Z,3.93
2019-06-08T23:28:58.199Z,5.77
2019-06-08T23:31:28.964Z,5.83
2019-06-08T23:33:59.217Z,3.53
2019-06-08T23:36:50.322Z,5.57
2019-06-08T23:38:57.049Z,4.17
2019-06-08T23:41:27.257Z,3.97
2019-06-08T23:43:55.498Z,4.47
2019-06-08T23:46:23.763Z,5.27
2019-06-08T23:48:52.018Z,3.50
2019-06-08T23:51:21.199Z,4.73
2019-06-08T23:53:49.451Z,2.73
2019-06-08T23:56:18.259Z,4.97
2019-06-08T23:58:48.214Z,2.20
